createdAt,value
2019-04-21T00:01:24.394Z,40.00
2019-04-21T00:04:09.495Z,43.25
2019-04-21T00:07:01.209Z,40.60
2019-04-21T00:09:32.585Z,42.00
2019-04-21T00:12:02.434Z,43.75
2019-04-21T00:14:30.252Z,43.00
2019-04-21T00:17:03.101Z,46.50
2019-04-21T00:19:34.940Z,43.00
2019-04-21T00:22:19.482Z,43.25
2019-04-21T00:24:58.372Z,45.50
2019-04-21T00:27:36.887Z,44.25
2019-04-21T00:30:15.764Z,55.25
2019-04-21T00:32:39.300Z,47.00
2019-04-21T00:35:11.789Z,47.00
2019-04-21T00:38:00.862Z,45.00
2019-04-21T00:40:41.443Z,45.00
2019-04-21T00:43:08.958Z,43.25
2019-04-21T00:45:39.314Z,45.50
2019-04-21T00:48:25.763Z,44.40
2019-04-21T00:51:19.838Z,45.00
2019-04-21T00:53:43.852Z,45.00
2019-04-21T00:56:18.170Z,43.25
2019-04-21T00:58:48.714Z,40.25
2019-04-21T01:01:21.977Z,48.25
2019-04-21T01:03:57.800Z,46.25
2019-04-21T01:06:35.190Z,47.75
2019-04-21T01:09:07.950Z,47.75
2019-04-21T01:11:44.614Z,50.25
2019-04-21T01:14:31.089Z,46.40
2019-04-21T01:17:00.701Z,49.50
2019-04-21T01:19:26.992Z,51.25
2019-04-21T01:21:44.188Z,52.50
2019-04-21T01:24:24.533Z,51.80
2019-04-21T01:27:04.727Z,54.75
2019-04-21T01:29:58.453Z,53.75
2019-04-21T01:32:25.346Z,52.25
2019-04-21T01:35:02.373Z,55.80
2019-04-21T01:37:44.070Z,53.50
2019-04-21T01:40:19.104Z,53.25
2019-04-21T01:42:55.664Z,54.25
2019-04-21T01:45:31.894Z,56.25
2019-04-21T01:48:05.818Z,56.50
2019-04-21T01:50:43.889Z,54.75
2019-04-21T01:53:24.178Z,58.00
2019-04-21T01:55:54.527Z,54.60
2019-04-21T01:58:22.982Z,57.60
2019-04-21T02:01:01.050Z,56.20
2019-04-21T02:03:52.570Z,56.75
2019-04-21T02:06:22.799Z,57.75
2019-04-21T02:08:52.555Z,58.75
2019-04-21T02:11:31.314Z,58.25
2019-04-21T02:14:29.860Z,52.50
2019-04-21T02:16:40.709Z,55.25
2019-04-21T02:19:13.869Z,53.75
2019-04-21T02:21:43.281Z,54.25
2019-04-21T02:24:35.186Z,50.75
2019-04-21T02:27:07.094Z,55.75
2019-04-21T02:29:41.287Z,60.00
2019-04-21T02:35:08.400Z,54.75
2019-04-21T02:37:40.326Z,59.50
2019-04-21T02:42:46.340Z,54.25
2019-04-21T02:45:28.431Z,58.50
2019-04-21T02:50:33.578Z,56.80
2019-04-21T02:53:09.515Z,56.00
2019-04-21T02:55:44.665Z,52.50
2019-04-21T03:00:55.505Z,54.00
2019-04-21T03:08:49.679Z,66.00
2019-04-21T03:13:59.360Z,61.50
2019-04-21T03:16:25.750Z,60.75
2019-04-21T03:21:42.202Z,66.75
2019-04-21T03:24:29.711Z,70.75
2019-04-21T03:29:29.518Z,70.25
2019-04-21T03:35:25.906Z,72.25
2019-04-21T03:37:16.743Z,65.50
2019-04-21T03:42:30.770Z,67.60
2019-04-21T03:44:59.979Z,68.00
2019-04-21T03:47:32.487Z,65.25
2019-04-21T03:50:11.414Z,72.75
2019-04-21T03:52:50.432Z,47.25
2019-04-21T04:00:58.278Z,69.75
2019-04-21T04:03:33.024Z,65.75
2019-04-21T04:16:26.104Z,74.00
2019-04-21T04:29:18.306Z,75.25
2019-04-21T04:31:42.769Z,78.25
2019-04-21T04:34:27.547Z,65.75
2019-04-21T04:37:07.442Z,64.75
2019-04-21T04:42:31.532Z,61.75
2019-04-21T04:47:34.984Z,61.75
2019-04-21T04:49:53.379Z,64.00
2019-04-21T04:55:17.160Z,62.25
2019-04-21T04:57:55.342Z,66.80
2019-04-21T05:00:25.864Z,65.25
2019-04-21T05:05:30.097Z,64.75
2019-04-21T05:11:01.463Z,70.25
2019-04-21T05:13:21.379Z,66.75
2019-04-21T05:15:51.273Z,71.00
2019-04-21T05:18:35.060Z,68.00
2019-04-21T05:21:12.459Z,72.25
2019-04-21T05:23:31.360Z,81.00
2019-04-21T05:25:58.422Z,76.00
2019-04-21T05:28:32.688Z,85.00
2019-04-21T05:31:18.250Z,83.25
2019-04-21T05:33:57.729Z,84.25
2019-04-21T05:36:30.874Z,90.50
2019-04-21T05:39:01.167Z,86.25
2019-04-21T05:41:29.085Z,90.25
2019-04-21T05:44:13.314Z,88.50
2019-04-21T05:46:59.418Z,85.75
2019-04-21T05:49:23.154Z,86.00
2019-04-21T05:51:55.701Z,89.50
2019-04-21T05:57:10.180Z,90.80
2019-04-21T05:59:49.078Z,90.25
2019-04-21T06:02:24.201Z,94.50
2019-04-21T06:07:34.832Z,90.25
2019-04-21T06:10:08.604Z,84.40
2019-04-21T06:12:49.777Z,86.50
2019-04-21T06:15:21.349Z,82.60
2019-04-21T06:18:02.780Z,82.50
2019-04-21T06:20:38.514Z,87.25
2019-04-21T06:23:03.077Z,81.25
2019-04-21T06:25:54.564Z,84.50
2019-04-21T06:28:20.689Z,83.50
2019-04-21T06:31:05.946Z,83.25
2019-04-21T06:33:46.005Z,80.50
2019-04-21T06:38:58.295Z,78.40
2019-04-21T06:41:21.528Z,76.25
2019-04-21T06:43:56.309Z,74.00
2019-04-21T06:46:33.424Z,78.25
2019-04-21T06:51:38.971Z,72.50
2019-04-21T06:54:30.627Z,66.75
2019-04-21T06:56:47.956Z,67.75
2019-04-21T06:59:20.785Z,66.50
2019-04-21T07:02:13.462Z,65.50
2019-04-21T07:04:40.873Z,61.67
2019-04-21T07:07:05.204Z,60.75
2019-04-21T07:09:53.088Z,61.80
2019-04-21T07:12:19.003Z,53.25
2019-04-21T07:14:58.983Z,52.80
2019-04-21T07:17:46.723Z,51.25
2019-04-21T07:22:44.659Z,49.50
2019-04-21T07:25:26.400Z,51.25
2019-04-21T07:27:53.788Z,50.25
2019-04-21T07:30:31.175Z,50.25
2019-04-21T07:33:20.699Z,49.75
2019-04-21T07:35:37.502Z,52.50
2019-04-21T07:38:19.587Z,49.00
2019-04-21T07:40:48.514Z,44.25
2019-04-21T07:43:21.934Z,50.00
2019-04-21T07:45:58.506Z,46.50
2019-04-21T07:48:37.537Z,43.50
2019-04-21T07:51:25.483Z,41.25
2019-04-21T07:54:05.641Z,42.20
2019-04-21T07:56:17.806Z,43.50
2019-04-21T07:59:02.273Z,42.00
2019-04-21T08:01:37.349Z,41.00
2019-04-21T08:04:38.259Z,41.50
2019-04-21T08:06:53.686Z,42.00
2019-04-21T08:09:29.446Z,40.00
2019-04-21T08:12:02.663Z,40.00
2019-04-21T08:14:43.533Z,40.50
2019-04-21T08:17:09.795Z,39.00
2019-04-21T08:19:46.168Z,39.00
2019-04-21T08:22:25.679Z,37.25
2019-04-21T08:25:05.714Z,37.25
2019-04-21T08:27:46.449Z,38.50
2019-04-21T08:30:12.865Z,37.00
2019-04-21T08:37:55.232Z,35.00
2019-04-21T08:40:36.655Z,32.20
2019-04-21T08:43:08.854Z,33.25
2019-04-21T08:45:51.245Z,31.00
2019-04-21T08:48:18.299Z,33.25
2019-04-21T08:51:08.282Z,34.75
2019-04-21T08:53:35.711Z,33.00
2019-04-21T08:56:10.532Z,32.00
2019-04-21T08:58:41.553Z,33.25
2019-04-21T09:01:23.902Z,32.40
2019-04-21T09:03:56.743Z,32.00
2019-04-21T09:09:05.287Z,29.50
2019-04-21T09:11:36.257Z,30.00
2019-04-21T09:14:13.857Z,30.00
2019-04-21T09:16:47.603Z,32.00
2019-04-21T09:19:38.536Z,31.25
2019-04-21T09:22:02.234Z,29.50
2019-04-21T09:24:33.345Z,27.80
2019-04-21T09:27:10.051Z,27.50
2019-04-21T09:29:36.656Z,27.75
2019-04-21T09:32:09.596Z,29.25
2019-04-21T09:34:43.744Z,29.75
2019-04-21T09:37:28.843Z,30.25
2019-04-21T09:39:55.154Z,27.75
2019-04-21T09:42:37.295Z,30.00
2019-04-21T09:45:06.174Z,30.75
2019-04-21T09:47:46.498Z,29.00
2019-04-21T09:50:15.135Z,30.25
2019-04-21T09:52:55.480Z,31.00
2019-04-21T09:55:31.499Z,29.00
2019-04-21T09:58:09.941Z,27.00
2019-04-21T10:00:47.653Z,26.80
2019-04-21T10:03:13.917Z,25.00
2019-04-21T10:05:47.489Z,25.00
2019-04-21T10:08:22.820Z,25.00
2019-04-21T10:10:56.967Z,26.00
2019-04-21T10:13:31.838Z,26.50
2019-04-21T10:16:05.799Z,25.00
2019-04-21T10:18:40.311Z,22.60
2019-04-21T10:21:15.456Z,24.00
2019-04-21T10:23:50.097Z,23.25
2019-04-21T10:26:24.360Z,21.75
2019-04-21T10:29:05.706Z,22.75
2019-04-21T10:31:34.650Z,23.00
2019-04-21T10:34:09.336Z,23.60
2019-04-21T10:36:43.193Z,21.25
2019-04-21T10:39:17.805Z,20.50
2019-04-21T10:41:57.353Z,23.75
2019-04-21T10:44:31.498Z,22.00
2019-04-21T10:47:06.788Z,23.00
2019-04-21T10:49:40.685Z,23.00
2019-04-21T10:52:15.240Z,21.00
2019-04-21T10:55:15.072Z,20.50
2019-04-21T10:57:24.496Z,18.75
2019-04-21T10:59:59.838Z,20.50
2019-04-21T11:02:34.791Z,21.00
2019-04-21T11:05:09.097Z,21.00
2019-04-21T11:07:57.601Z,13.75
2019-04-21T11:10:18.406Z,16.50
2019-04-21T11:12:52.690Z,19.00
2019-04-21T11:15:27.511Z,15.25
2019-04-21T11:18:01.795Z,14.75
2019-04-21T11:20:35.655Z,17.75
2019-04-21T11:23:10.191Z,18.25
2019-04-21T11:25:44.057Z,16.75
2019-04-21T11:28:18.644Z,14.00
2019-04-21T11:30:53.092Z,15.25
2019-04-21T11:33:27.190Z,16.00
2019-04-21T11:36:01.457Z,14.75
2019-04-21T11:38:51.328Z,15.25
2019-04-21T11:41:11.912Z,14.20
2019-04-21T11:43:45.771Z,16.40
2019-04-21T11:46:20.504Z,16.75
2019-04-21T11:48:54.701Z,17.00
2019-04-21T11:51:28.967Z,16.50
2019-04-21T11:54:02.874Z,18.20
2019-04-21T11:56:37.002Z,15.25
2019-04-21T11:59:11.978Z,15.40
2019-04-21T12:01:45.988Z,14.00
2019-04-21T12:04:19.702Z,16.00
2019-04-21T12:06:55.972Z,15.40
2019-04-21T12:09:30.171Z,18.00
2019-04-21T12:12:05.261Z,17.40
2019-04-21T12:14:39.698Z,17.00
2019-04-21T12:17:14.244Z,16.00
2019-04-21T12:19:48.563Z,16.00
2019-04-21T12:22:28.215Z,15.00
2019-04-21T12:24:57.817Z,18.20
2019-04-21T12:27:32.006Z,17.75
2019-04-21T12:30:06.846Z,16.50
2019-04-21T12:32:40.589Z,17.25
2019-04-21T12:35:15.652Z,18.00
2019-04-21T12:37:51.062Z,19.25
2019-04-21T12:40:26.092Z,18.20
2019-04-21T12:43:00.953Z,18.00
2019-04-21T12:45:35.947Z,13.20
2019-04-21T12:48:10.456Z,12.00
2019-04-21T12:50:45.717Z,16.75
2019-04-21T12:53:19.545Z,17.00
2019-04-21T12:55:53.818Z,16.00
2019-04-21T12:58:28.983Z,15.00
2019-04-21T13:01:03.008Z,15.20
2019-04-21T13:03:37.604Z,17.00
2019-04-21T13:06:11.770Z,15.50
2019-04-21T13:08:53.611Z,18.25
2019-04-21T13:11:21.432Z,16.50
2019-04-21T13:13:55.742Z,16.50
2019-04-21T13:16:29.601Z,17.25
2019-04-21T13:19:03.346Z,17.80
2019-04-21T13:21:38.130Z,16.25
2019-04-21T13:24:12.033Z,17.25
2019-04-21T13:26:52.380Z,16.75
2019-04-21T13:29:21.184Z,16.00
2019-04-21T13:31:56.175Z,16.25
2019-04-21T13:34:31.669Z,14.25
2019-04-21T13:37:05.782Z,16.50
2019-04-21T13:40:01.931Z,14.25
2019-04-21T13:42:24.075Z,14.50
2019-04-21T13:44:50.969Z,14.25
2019-04-21T13:47:25.047Z,13.25
2019-04-21T13:50:01.048Z,17.00
2019-04-21T13:52:34.545Z,16.25
2019-04-21T13:55:09.508Z,21.80
2019-04-21T13:57:44.369Z,55.50
2019-04-21T14:00:19.434Z,22.20
2019-04-21T14:02:54.561Z,18.60
2019-04-21T14:05:28.673Z,15.20
2019-04-21T14:08:03.150Z,12.60
2019-04-21T14:10:37.675Z,15.00
2019-04-21T14:13:12.148Z,14.80
2019-04-21T14:15:48.336Z,13.00
2019-04-21T14:18:22.553Z,33.60
2019-04-21T14:20:57.445Z,45.80
2019-04-21T14:23:38.072Z,16.50
2019-04-21T14:26:06.632Z,30.80
2019-04-21T14:28:41.051Z,23.50
2019-04-21T14:31:14.875Z,23.50
2019-04-21T14:33:49.941Z,18.60
2019-04-21T14:36:23.955Z,24.75
2019-04-21T14:38:58.731Z,22.00
2019-04-21T14:41:32.682Z,36.00
2019-04-21T14:44:06.925Z,29.00
2019-04-21T14:46:40.723Z,47.00
2019-04-21T14:49:15.199Z,20.00
2019-04-21T14:51:49.565Z,31.20
2019-04-21T14:54:24.701Z,18.00
2019-04-21T14:56:58.633Z,19.60
2019-04-21T14:59:33.273Z,16.00
2019-04-21T15:02:07.756Z,22.00
2019-04-21T15:04:41.793Z,15.50
2019-04-21T15:07:15.568Z,20.25
2019-04-21T15:10:01.163Z,14.25
2019-04-21T15:12:25.771Z,28.25
2019-04-21T15:15:00.164Z,25.25
2019-04-21T15:17:34.031Z,19.75
2019-04-21T15:20:11.165Z,14.60
2019-04-21T15:22:44.270Z,15.50
2019-04-21T15:25:18.410Z,12.00
2019-04-21T15:27:52.835Z,14.20
2019-04-21T15:30:26.879Z,14.75
2019-04-21T15:33:02.222Z,13.40
2019-04-21T15:35:37.329Z,13.50
2019-04-21T15:38:11.870Z,14.50
2019-04-21T15:40:52.155Z,13.40
2019-04-21T15:43:22.356Z,15.00
2019-04-21T15:45:57.101Z,13.00
2019-04-21T15:48:31.010Z,13.80
2019-04-21T15:51:05.659Z,12.75
2019-04-21T15:53:41.632Z,11.00
2019-04-21T15:56:17.325Z,12.00
2019-04-21T15:58:52.659Z,14.75
2019-04-21T16:01:26.652Z,12.00
2019-04-21T16:04:02.142Z,13.00
2019-04-21T16:06:37.229Z,14.00
2019-04-21T16:09:15.058Z,13.20
2019-04-21T16:11:46.652Z,12.50
2019-04-21T16:14:20.688Z,15.75
2019-04-21T16:16:54.635Z,14.00
2019-04-21T16:19:36.245Z,14.00
2019-04-21T16:22:10.818Z,14.75
2019-04-21T16:24:46.272Z,15.00
2019-04-21T16:27:21.305Z,13.80
2019-04-21T16:29:55.265Z,16.25
2019-04-21T16:32:30.155Z,14.60
2019-04-21T16:35:10.445Z,15.40
2019-04-21T16:37:41.607Z,14.00
2019-04-21T16:40:15.484Z,15.00
2019-04-21T16:42:50.089Z,16.00
2019-04-21T16:45:25.114Z,14.00
2019-04-21T16:47:59.147Z,13.80
2019-04-21T16:50:33.972Z,15.00
2019-04-21T16:53:08.230Z,16.25
2019-04-21T16:55:42.207Z,20.00
2019-04-21T16:58:20.640Z,15.00
2019-04-21T17:01:00.698Z,14.60
2019-04-21T17:03:28.307Z,14.40
2019-04-21T17:06:04.695Z,13.40
2019-04-21T17:08:38.747Z,13.25
2019-04-21T17:11:19.541Z,13.20
2019-04-21T17:13:50.006Z,14.50
2019-04-21T17:19:09.109Z,14.00
2019-04-21T17:21:34.746Z,12.25
2019-04-21T17:24:08.522Z,11.50
2019-04-21T17:26:44.734Z,11.00
2019-04-21T17:29:20.753Z,12.00
2019-04-21T17:31:55.305Z,10.50
2019-04-21T17:34:31.640Z,10.00
2019-04-21T17:37:05.526Z,10.75
2019-04-21T17:39:40.618Z,11.25
2019-04-21T17:42:26.419Z,10.00
2019-04-21T17:44:51.069Z,13.00
2019-04-21T17:47:34.198Z,15.00
2019-04-21T17:50:03.130Z,15.50
2019-04-21T17:52:42.860Z,14.25
2019-04-21T17:55:22.987Z,14.25
2019-04-21T17:58:09.290Z,13.20
2019-04-21T18:01:09.244Z,10.75
2019-04-21T18:03:35.308Z,11.00
2019-04-21T18:05:55.915Z,11.00
2019-04-21T18:08:38.705Z,10.75
2019-04-21T18:11:03.442Z,12.75
2019-04-21T18:13:26.925Z,12.75
2019-04-21T18:16:09.642Z,16.50
2019-04-21T18:18:36.832Z,16.40
2019-04-21T18:21:10.741Z,18.00
2019-04-21T18:23:52.846Z,20.80
2019-04-21T18:26:30.304Z,23.00
2019-04-21T18:28:58.571Z,19.25
2019-04-21T18:31:33.773Z,21.25
2019-04-21T18:34:11.085Z,21.00
2019-04-21T18:36:46.443Z,20.20
2019-04-21T18:39:34.187Z,20.75
2019-04-21T18:42:10.909Z,18.80
2019-04-21T18:45:11.060Z,19.00
2019-04-21T18:47:24.204Z,15.40
2019-04-21T18:49:46.010Z,16.00
2019-04-21T18:52:32.250Z,18.25
2019-04-21T18:55:09.548Z,18.00
2019-04-21T18:57:39.250Z,20.00
2019-04-21T19:00:15.346Z,19.20
2019-04-21T19:02:47.718Z,21.25
2019-04-21T19:05:21.216Z,21.75
2019-04-21T19:08:11.492Z,19.00
2019-04-21T19:10:50.727Z,22.00
2019-04-21T19:13:44.385Z,22.00
2019-04-21T19:16:22.830Z,24.00
2019-04-21T19:18:43.663Z,24.00
2019-04-21T19:21:06.169Z,22.00
2019-04-21T19:23:53.557Z,17.00
2019-04-21T19:29:03.512Z,18.50
2019-04-21T19:31:32.233Z,17.60
2019-04-21T19:33:59.851Z,18.00
2019-04-21T19:36:23.655Z,16.00
2019-04-21T19:39:06.840Z,18.60
2019-04-21T19:41:48.980Z,19.00
2019-04-21T19:44:32.340Z,18.50
2019-04-21T19:47:03.662Z,20.50
2019-04-21T19:49:45.250Z,20.25
2019-04-21T19:52:05.107Z,22.00
2019-04-21T19:54:36.314Z,19.20
2019-04-21T19:57:07.270Z,21.50
2019-04-21T19:59:47.678Z,15.25
2019-04-21T20:02:16.612Z,21.50
2019-04-21T20:04:59.000Z,22.75
2019-04-21T20:07:44.461Z,22.50
2019-04-21T20:10:23.967Z,24.75
2019-04-21T20:12:55.587Z,25.00
2019-04-21T20:15:37.395Z,26.00
2019-04-21T20:18:01.985Z,26.00
2019-04-21T20:20:24.864Z,32.20
2019-04-21T20:22:59.399Z,32.00
2019-04-21T20:25:41.808Z,32.25
2019-04-21T20:28:16.079Z,31.00
2019-04-21T20:31:02.434Z,30.00
2019-04-21T20:36:16.855Z,29.75
2019-04-21T20:38:44.472Z,29.00
2019-04-21T20:41:22.447Z,26.75
2019-04-21T20:44:00.500Z,27.25
2019-04-21T20:46:36.694Z,28.25
2019-04-21T20:49:02.764Z,29.80
2019-04-21T20:51:41.978Z,27.75
2019-04-21T20:54:23.117Z,30.00
2019-04-21T20:56:57.830Z,31.00
2019-04-21T20:59:29.302Z,32.25
2019-04-21T21:02:05.685Z,33.75
2019-04-21T21:04:32.661Z,35.75
2019-04-21T21:07:34.610Z,33.75
2019-04-21T21:10:00.467Z,31.75
2019-04-21T21:12:43.093Z,34.50
2019-04-21T21:15:02.582Z,34.60
2019-04-21T21:17:53.665Z,34.50
2019-04-21T21:20:24.830Z,34.00
2019-04-21T21:22:56.176Z,35.25
2019-04-21T21:25:40.243Z,36.40
2019-04-21T21:28:06.748Z,36.20
2019-04-21T21:30:37.521Z,38.20
2019-04-21T21:33:27.553Z,37.50
2019-04-21T21:35:56.810Z,36.25
2019-04-21T21:38:31.436Z,36.75
2019-04-21T21:40:59.598Z,39.00
2019-04-21T21:43:27.506Z,38.00
2019-04-21T21:46:11.170Z,39.50
2019-04-21T21:48:51.385Z,39.20
2019-04-21T21:51:22.774Z,40.80
2019-04-21T21:53:48.822Z,43.50
2019-04-21T21:56:24.618Z,41.25
2019-04-21T21:59:01.309Z,41.50
2019-04-21T22:01:38.845Z,46.25
2019-04-21T22:04:17.020Z,53.75
2019-04-21T22:06:50.656Z,55.00
2019-04-21T22:09:20.114Z,54.25
2019-04-21T22:11:57.915Z,49.25
2019-04-21T22:14:36.935Z,44.75
2019-04-21T22:17:24.689Z,45.50
2019-04-21T22:20:05.259Z,44.25
2019-04-21T22:22:34.155Z,47.25
2019-04-21T22:25:02.674Z,46.25
2019-04-21T22:27:27.380Z,43.50
2019-04-21T22:30:03.934Z,44.00
2019-04-21T22:32:38.245Z,44.00
2019-04-21T22:35:23.534Z,42.00
2019-04-21T22:38:02.034Z,42.20
2019-04-21T22:40:35.847Z,44.25
2019-04-21T22:43:11.927Z,42.50
2019-04-21T22:45:35.580Z,42.75
2019-04-21T22:48:14.333Z,42.80
2019-04-21T22:50:44.866Z,44.25
2019-04-21T22:53:19.767Z,41.75
2019-04-21T22:56:00.093Z,41.50
2019-04-21T22:58:33.967Z,42.00
2019-04-21T23:01:06.015Z,42.00
2019-04-21T23:03:48.997Z,41.00
2019-04-21T23:06:21.619Z,42.00
2019-04-21T23:08:51.274Z,42.25
2019-04-21T23:11:28.059Z,41.00
2019-04-21T23:14:05.035Z,41.25
2019-04-21T23:16:39.670Z,42.00
2019-04-21T23:19:30.816Z,42.25
2019-04-21T23:22:04.141Z,41.00
2019-04-21T23:24:45.685Z,40.00
2019-04-21T23:27:11.774Z,40.40
2019-04-21T23:30:03.322Z,41.00
2019-04-21T23:32:23.581Z,40.50
2019-04-21T23:34:45.590Z,40.00
2019-04-21T23:37:22.152Z,39.50
2019-04-21T23:40:01.017Z,38.50
2019-04-21T23:42:36.189Z,39.75
2019-04-21T23:45:08.723Z,38.00
2019-04-21T23:47:57.873Z,39.80
2019-04-21T23:50:30.696Z,39.00
2019-04-21T23:52:55.434Z,38.00
2019-04-21T23:55:29.454Z,40.50
2019-04-21T23:58:09.437Z,39.00
